sensor_id;sensor_type;location;lat;lon;timestamp;P1;durP1;ratioP1;P2;durP2;ratioP2
51515;SDS011;37603;55.614;37.326;2023-04-24T00:03:55;16.4;;;10.7;;
51515;SDS011;37603;55.614;37.326;2023-04-24T00:09:55;24.0;;;11.0;;
51515;SDS011;37603;55.614;37.326;2023-04-24T00:15:53;18.5;;;10.6;;
51515;SDS011;37603;55.614;37.326;2023-04-24T00:21:53;23.7;;;11.5;;
51515;SDS011;37603;55.614;37.326;2023-04-24T00:27:52;22.5;;;11.3;;
51515;SDS011;37603;55.614;37.326;2023-04-24T00:33:51;19.6;;;10.9;;
51515;SDS011;37603;55.614;37.326;2023-04-24T00:39:50;19.7;;;11.0;;
51515;SDS011;37603;55.614;37.326;2023-04-24T00:45:49;21.7;;;10.6;;
51515;SDS011;37603;55.614;37.326;2023-04-24T00:51:48;22.6;;;10.8;;
51515;SDS011;37603;55.614;37.326;2023-04-24T00:57:47;19.2;;;10.4;;
51515;SDS011;37603;55.614;37.326;2023-04-24T01:03:46;19.6;;;10.8;;
51515;SDS011;37603;55.614;37.326;2023-04-24T01:09:45;20.3;;;10.5;;
51515;SDS011;37603;55.614;37.326;2023-04-24T01:15:44;19.5;;;10.8;;
51515;SDS011;37603;55.614;37.326;2023-04-24T01:21:43;18.0;;;10.3;;
51515;SDS011;37603;55.614;37.326;2023-04-24T01:27:43;19.7;;;10.5;;
51515;SDS011;37603;55.614;37.326;2023-04-24T01:33:42;20.2;;;10.4;;
51515;SDS011;37603;55.614;37.326;2023-04-24T01:39:41;20.3;;;10.9;;
51515;SDS011;37603;55.614;37.326;2023-04-24T01:45:40;17.3;;;10.2;;
51515;SDS011;37603;55.614;37.326;2023-04-24T01:51:39;20.2;;;10.0;;
51515;SDS011;37603;55.614;37.326;2023-04-24T01:57:38;23.2;;;10.8;;
51515;SDS011;37603;55.614;37.326;2023-04-24T02:03:37;21.3;;;10.1;;
51515;SDS011;37603;55.614;37.326;2023-04-24T02:09:36;18.4;;;10.3;;
51515;SDS011;37603;55.614;37.326;2023-04-24T02:15:35;19.3;;;10.2;;
51515;SDS011;37603;55.614;37.326;2023-04-24T02:21:34;21.9;;;10.9;;
51515;SDS011;37603;55.614;37.326;2023-04-24T02:27:33;20.3;;;11.0;;
51515;SDS011;37603;55.614;37.326;2023-04-24T02:33:32;16.6;;;10.9;;
51515;SDS011;37603;55.614;37.326;2023-04-24T02:39:31;23.6;;;10.6;;
51515;SDS011;37603;55.614;37.326;2023-04-24T02:45:30;19.6;;;10.8;;
51515;SDS011;37603;55.614;37.326;2023-04-24T02:51:29;21.6;;;10.8;;
51515;SDS011;37603;55.614;37.326;2023-04-24T02:57:28;21.7;;;11.1;;
51515;SDS011;37603;55.614;37.326;2023-04-24T03:03:27;19.4;;;10.9;;
51515;SDS011;37603;55.614;37.326;2023-04-24T03:09:26;20.3;;;11.0;;
51515;SDS011;37603;55.614;37.326;2023-04-24T03:15:26;20.8;;;11.8;;
51515;SDS011;37603;55.614;37.326;2023-04-24T03:21:24;18.5;;;10.8;;
51515;SDS011;37603;55.614;37.326;2023-04-24T03:27:23;21.6;;;11.6;;
51515;SDS011;37603;55.614;37.326;2023-04-24T03:33:22;20.2;;;11.5;;
51515;SDS011;37603;55.614;37.326;2023-04-24T03:39:21;18.2;;;10.8;;
51515;SDS011;37603;55.614;37.326;2023-04-24T03:45:21;21.4;;;11.5;;
51515;SDS011;37603;55.614;37.326;2023-04-24T03:51:20;21.2;;;11.7;;
51515;SDS011;37603;55.614;37.326;2023-04-24T03:57:19;19.1;;;11.2;;
51515;SDS011;37603;55.614;37.326;2023-04-24T04:03:18;23.1;;;12.4;;
51515;SDS011;37603;55.614;37.326;2023-04-24T04:09:17;20.3;;;11.9;;
51515;SDS011;37603;55.614;37.326;2023-04-24T04:15:16;18.7;;;11.0;;
51515;SDS011;37603;55.614;37.326;2023-04-24T04:21:15;18.6;;;10.8;;
51515;SDS011;37603;55.614;37.326;2023-04-24T04:27:14;16.7;;;10.2;;
51515;SDS011;37603;55.614;37.326;2023-04-24T04:33:13;15.6;;;9.2;;
51515;SDS011;37603;55.614;37.326;2023-04-24T04:39:12;14.2;;;8.8;;
51515;SDS011;37603;55.614;37.326;2023-04-24T04:45:12;11.9;;;8.3;;
51515;SDS011;37603;55.614;37.326;2023-04-24T04:51:11;15.1;;;8.7;;
51515;SDS011;37603;55.614;37.326;2023-04-24T04:57:10;14.1;;;8.2;;
51515;SDS011;37603;55.614;37.326;2023-04-24T05:03:09;12.5;;;8.4;;
51515;SDS011;37603;55.614;37.326;2023-04-24T05:09:09;12.0;;;8.1;;
51515;SDS011;37603;55.614;37.326;2023-04-24T05:15:08;11.1;;;8.1;;
51515;SDS011;37603;55.614;37.326;2023-04-24T05:21:07;12.4;;;7.8;;
51515;SDS011;37603;55.614;37.326;2023-04-24T05:27:07;11.3;;;7.5;;
51515;SDS011;37603;55.614;37.326;2023-04-24T05:33:06;13.1;;;7.3;;
51515;SDS011;37603;55.614;37.326;2023-04-24T05:39:05;13.2;;;7.6;;
51515;SDS011;37603;55.614;37.326;2023-04-24T05:45:06;11.1;;;7.4;;
51515;SDS011;37603;55.614;37.326;2023-04-24T05:51:04;11.6;;;7.4;;
51515;SDS011;37603;55.614;37.326;2023-04-24T05:57:04;11.9;;;6.9;;
51515;SDS011;37603;55.614;37.326;2023-04-24T06:03:04;10.7;;;6.6;;
51515;SDS011;37603;55.614;37.326;2023-04-24T06:09:03;10.6;;;6.9;;
51515;SDS011;37603;55.614;37.326;2023-04-24T06:15:03;11.7;;;6.9;;
51515;SDS011;37603;55.614;37.326;2023-04-24T06:21:03;10.0;;;6.5;;
51515;SDS011;37603;55.614;37.326;2023-04-24T06:27:02;10.1;;;6.5;;
51515;SDS011;37603;55.614;37.326;2023-04-24T06:33:02;10.5;;;6.4;;
51515;SDS011;37603;55.614;37.326;2023-04-24T06:39:02;9.2;;;5.6;;
51515;SDS011;37603;55.614;37.326;2023-04-24T06:45:02;10.7;;;5.8;;
51515;SDS011;37603;55.614;37.326;2023-04-24T06:51:01;9.9;;;5.8;;
51515;SDS011;37603;55.614;37.326;2023-04-24T06:57:01;8.8;;;4.9;;
51515;SDS011;37603;55.614;37.326;2023-04-24T07:03:01;10.4;;;5.3;;
51515;SDS011;37603;55.614;37.326;2023-04-24T07:09:01;9.4;;;5.1;;
51515;SDS011;37603;55.614;37.326;2023-04-24T07:15:01;9.5;;;4.5;;
51515;SDS011;37603;55.614;37.326;2023-04-24T07:21:01;39.5;;;7.5;;
51515;SDS011;37603;55.614;37.326;2023-04-24T07:27:01;8.3;;;5.2;;
51515;SDS011;37603;55.614;37.326;2023-04-24T07:33:01;9.0;;;5.4;;
51515;SDS011;37603;55.614;37.326;2023-04-24T07:39:01;5.6;;;4.4;;
51515;SDS011;37603;55.614;37.326;2023-04-24T07:45:01;6.8;;;4.4;;
51515;SDS011;37603;55.614;37.326;2023-04-24T07:51:01;5.6;;;4.2;;
51515;SDS011;37603;55.614;37.326;2023-04-24T07:57:01;7.7;;;4.2;;
51515;SDS011;37603;55.614;37.326;2023-04-24T08:03:01;7.8;;;4.4;;
51515;SDS011;37603;55.614;37.326;2023-04-24T08:09:01;4.6;;;3.9;;
51515;SDS011;37603;55.614;37.326;2023-04-24T08:15:01;8.0;;;4.6;;
51515;SDS011;37603;55.614;37.326;2023-04-24T08:21:01;7.4;;;5.2;;
51515;SDS011;37603;55.614;37.326;2023-04-24T08:27:01;6.2;;;4.4;;
51515;SDS011;37603;55.614;37.326;2023-04-24T08:33:01;5.7;;;3.6;;
51515;SDS011;37603;55.614;37.326;2023-04-24T08:39:01;5.9;;;3.7;;
51515;SDS011;37603;55.614;37.326;2023-04-24T08:45:01;5.6;;;3.5;;
51515;SDS011;37603;55.614;37.326;2023-04-24T08:51:01;5.8;;;3.5;;
51515;SDS011;37603;55.614;37.326;2023-04-24T08:57:01;4.5;;;3.6;;
51515;SDS011;37603;55.614;37.326;2023-04-24T09:03:01;4.8;;;3.4;;
51515;SDS011;37603;55.614;37.326;2023-04-24T09:09:01;5.1;;;3.5;;
51515;SDS011;37603;55.614;37.326;2023-04-24T09:15:00;4.8;;;3.4;;
51515;SDS011;37603;55.614;37.326;2023-04-24T09:21:01;5.5;;;3.4;;
51515;SDS011;37603;55.614;37.326;2023-04-24T09:27:00;4.9;;;3.5;;
51515;SDS011;37603;55.614;37.326;2023-04-24T09:39:00;6.0;;;3.4;;
51515;SDS011;37603;55.614;37.326;2023-04-24T09:45:00;5.7;;;3.6;;
51515;SDS011;37603;55.614;37.326;2023-04-24T09:51:00;5.0;;;3.8;;
51515;SDS011;37603;55.614;37.326;2023-04-24T09:57:00;4.2;;;3.4;;
51515;SDS011;37603;55.614;37.326;2023-04-24T10:03:00;7.7;;;4.1;;
51515;SDS011;37603;55.614;37.326;2023-04-24T10:09:00;4.3;;;3.4;;
51515;SDS011;37603;55.614;37.326;2023-04-24T10:14:59;6.0;;;3.4;;
51515;SDS011;37603;55.614;37.326;2023-04-24T10:20:59;6.8;;;3.3;;
51515;SDS011;37603;55.614;37.326;2023-04-24T10:26:59;6.5;;;4.7;;
51515;SDS011;37603;55.614;37.326;2023-04-24T10:32:59;6.2;;;3.5;;
51515;SDS011;37603;55.614;37.326;2023-04-24T10:39:00;5.9;;;3.3;;
51515;SDS011;37603;55.614;37.326;2023-04-24T10:44:59;4.5;;;3.3;;
51515;SDS011;37603;55.614;37.326;2023-04-24T10:50:59;4.6;;;3.2;;
51515;SDS011;37603;55.614;37.326;2023-04-24T11:02:58;6.4;;;3.3;;
51515;SDS011;37603;55.614;37.326;2023-04-24T11:09:02;4.8;;;3.4;;
51515;SDS011;37603;55.614;37.326;2023-04-24T11:15:00;4.3;;;3.2;;
51515;SDS011;37603;55.614;37.326;2023-04-24T11:20:58;7.8;;;4.0;;
51515;SDS011;37603;55.614;37.326;2023-04-24T11:26:59;4.6;;;3.1;;
51515;SDS011;37603;55.614;37.326;2023-04-24T11:33:01;4.2;;;3.3;;
51515;SDS011;37603;55.614;37.326;2023-04-24T11:38:58;5.7;;;3.4;;
51515;SDS011;37603;55.614;37.326;2023-04-24T11:51:01;5.2;;;3.1;;
51515;SDS011;37603;55.614;37.326;2023-04-24T11:56:58;6.1;;;3.2;;
51515;SDS011;37603;55.614;37.326;2023-04-24T12:03:06;5.9;;;3.4;;
51515;SDS011;37603;55.614;37.326;2023-04-24T12:08:57;4.0;;;3.0;;
51515;SDS011;37603;55.614;37.326;2023-04-24T12:14:58;4.8;;;3.3;;
51515;SDS011;37603;55.614;37.326;2023-04-24T12:26:57;4.2;;;3.2;;
51515;SDS011;37603;55.614;37.326;2023-04-24T12:32:57;6.7;;;3.2;;
51515;SDS011;37603;55.614;37.326;2023-04-24T12:38:57;5.7;;;3.4;;
51515;SDS011;37603;55.614;37.326;2023-04-24T12:44:57;6.3;;;2.8;;
51515;SDS011;37603;55.614;37.326;2023-04-24T12:50:57;4.7;;;3.3;;
51515;SDS011;37603;55.614;37.326;2023-04-24T12:56:57;5.1;;;3.1;;
51515;SDS011;37603;55.614;37.326;2023-04-24T13:02:57;5.3;;;3.3;;
51515;SDS011;37603;55.614;37.326;2023-04-24T13:08:56;5.1;;;3.1;;
51515;SDS011;37603;55.614;37.326;2023-04-24T13:20:56;5.7;;;3.2;;
51515;SDS011;37603;55.614;37.326;2023-04-24T13:26:56;5.1;;;3.1;;
51515;SDS011;37603;55.614;37.326;2023-04-24T13:32:56;4.0;;;2.9;;
51515;SDS011;37603;55.614;37.326;2023-04-24T13:38:56;5.7;;;3.2;;
51515;SDS011;37603;55.614;37.326;2023-04-24T13:44:56;4.2;;;3.1;;
51515;SDS011;37603;55.614;37.326;2023-04-24T13:50:56;6.0;;;3.4;;
51515;SDS011;37603;55.614;37.326;2023-04-24T13:56:57;5.6;;;3.9;;
51515;SDS011;37603;55.614;37.326;2023-04-24T14:02:56;6.4;;;3.8;;
51515;SDS011;37603;55.614;37.326;2023-04-24T14:08:55;5.3;;;3.6;;
51515;SDS011;37603;55.614;37.326;2023-04-24T14:14:55;6.9;;;3.7;;
51515;SDS011;37603;55.614;37.326;2023-04-24T14:20:55;6.3;;;3.0;;
51515;SDS011;37603;55.614;37.326;2023-04-24T14:32:55;3.6;;;2.9;;
51515;SDS011;37603;55.614;37.326;2023-04-24T14:38:55;5.6;;;2.8;;
51515;SDS011;37603;55.614;37.326;2023-04-24T14:44:55;4.2;;;3.1;;
51515;SDS011;37603;55.614;37.326;2023-04-24T14:50:55;5.9;;;3.2;;
51515;SDS011;37603;55.614;37.326;2023-04-24T14:56:55;5.0;;;3.1;;
51515;SDS011;37603;55.614;37.326;2023-04-24T15:02:55;5.1;;;2.8;;
51515;SDS011;37603;55.614;37.326;2023-04-24T15:08:54;4.6;;;2.8;;
51515;SDS011;37603;55.614;37.326;2023-04-24T15:14:54;4.3;;;2.9;;
51515;SDS011;37603;55.614;37.326;2023-04-24T15:20:54;5.6;;;3.6;;
51515;SDS011;37603;55.614;37.326;2023-04-24T15:26:54;6.6;;;3.2;;
51515;SDS011;37603;55.614;37.326;2023-04-24T15:32:54;6.4;;;3.7;;
51515;SDS011;37603;55.614;37.326;2023-04-24T15:38:54;9.0;;;3.5;;
51515;SDS011;37603;55.614;37.326;2023-04-24T15:44:53;7.1;;;3.3;;
51515;SDS011;37603;55.614;37.326;2023-04-24T15:50:53;9.0;;;4.0;;
51515;SDS011;37603;55.614;37.326;2023-04-24T15:56:53;7.0;;;3.1;;
51515;SDS011;37603;55.614;37.326;2023-04-24T16:02:52;6.9;;;3.0;;
51515;SDS011;37603;55.614;37.326;2023-04-24T16:08:52;6.7;;;3.5;;
51515;SDS011;37603;55.614;37.326;2023-04-24T16:14:52;7.3;;;3.6;;
51515;SDS011;37603;55.614;37.326;2023-04-24T16:20:52;9.0;;;4.8;;
51515;SDS011;37603;55.614;37.326;2023-04-24T16:26:51;11.6;;;5.2;;
51515;SDS011;37603;55.614;37.326;2023-04-24T16:32:51;8.8;;;4.5;;
51515;SDS011;37603;55.614;37.326;2023-04-24T16:38:51;8.9;;;4.4;;
51515;SDS011;37603;55.614;37.326;2023-04-24T16:44:51;7.4;;;3.7;;
51515;SDS011;37603;55.614;37.326;2023-04-24T16:50:50;12.8;;;9.5;;
51515;SDS011;37603;55.614;37.326;2023-04-24T16:56:51;30.7;;;24.6;;
51515;SDS011;37603;55.614;37.326;2023-04-24T17:02:49;8.3;;;4.0;;
51515;SDS011;37603;55.614;37.326;2023-04-24T17:08:49;11.3;;;3.9;;
51515;SDS011;37603;55.614;37.326;2023-04-24T17:14:49;14.8;;;7.5;;
51515;SDS011;37603;55.614;37.326;2023-04-24T17:20:48;16.6;;;10.0;;
51515;SDS011;37603;55.614;37.326;2023-04-24T17:26:48;13.0;;;7.0;;
51515;SDS011;37603;55.614;37.326;2023-04-24T17:32:48;11.4;;;5.6;;
51515;SDS011;37603;55.614;37.326;2023-04-24T17:38:47;9.2;;;4.1;;
51515;SDS011;37603;55.614;37.326;2023-04-24T17:44:47;8.9;;;4.2;;
51515;SDS011;37603;55.614;37.326;2023-04-24T17:50:47;11.7;;;4.9;;
51515;SDS011;37603;55.614;37.326;2023-04-24T17:56:46;13.0;;;5.0;;
51515;SDS011;37603;55.614;37.326;2023-04-24T18:02:46;10.8;;;5.8;;
51515;SDS011;37603;55.614;37.326;2023-04-24T18:08:45;16.4;;;6.5;;
51515;SDS011;37603;55.614;37.326;2023-04-24T18:14:45;12.9;;;6.2;;
51515;SDS011;37603;55.614;37.326;2023-04-24T18:20:44;11.6;;;5.5;;
51515;SDS011;37603;55.614;37.326;2023-04-24T18:26:44;10.3;;;4.7;;
51515;SDS011;37603;55.614;37.326;2023-04-24T18:32:43;12.1;;;5.4;;
51515;SDS011;37603;55.614;37.326;2023-04-24T18:38:43;11.3;;;5.1;;
51515;SDS011;37603;55.614;37.326;2023-04-24T18:44:42;9.1;;;4.7;;
51515;SDS011;37603;55.614;37.326;2023-04-24T18:50:42;8.8;;;4.9;;
51515;SDS011;37603;55.614;37.326;2023-04-24T18:56:42;8.3;;;4.6;;
51515;SDS011;37603;55.614;37.326;2023-04-24T19:02:41;10.7;;;4.9;;
51515;SDS011;37603;55.614;37.326;2023-04-24T19:08:41;10.3;;;5.1;;
51515;SDS011;37603;55.614;37.326;2023-04-24T19:14:40;10.8;;;5.5;;
51515;SDS011;37603;55.614;37.326;2023-04-24T19:20:40;11.0;;;5.4;;
51515;SDS011;37603;55.614;37.326;2023-04-24T19:26:39;8.9;;;5.3;;
51515;SDS011;37603;55.614;37.326;2023-04-24T19:32:39;11.5;;;5.3;;
51515;SDS011;37603;55.614;37.326;2023-04-24T19:38:38;12.0;;;5.2;;
51515;SDS011;37603;55.614;37.326;2023-04-24T19:44:38;9.0;;;5.4;;
51515;SDS011;37603;55.614;37.326;2023-04-24T19:50:37;10.7;;;5.4;;
51515;SDS011;37603;55.614;37.326;2023-04-24T19:56:36;11.7;;;5.1;;
51515;SDS011;37603;55.614;37.326;2023-04-24T20:02:36;10.8;;;5.0;;
51515;SDS011;37603;55.614;37.326;2023-04-24T20:08:35;12.1;;;5.2;;
51515;SDS011;37603;55.614;37.326;2023-04-24T20:14:35;10.3;;;5.3;;
51515;SDS011;37603;55.614;37.326;2023-04-24T20:20:34;11.1;;;5.5;;
51515;SDS011;37603;55.614;37.326;2023-04-24T20:26:34;12.4;;;6.1;;
51515;SDS011;37603;55.614;37.326;2023-04-24T20:32:33;11.3;;;6.1;;
51515;SDS011;37603;55.614;37.326;2023-04-24T20:38:32;11.5;;;5.4;;
51515;SDS011;37603;55.614;37.326;2023-04-24T20:44:32;13.7;;;5.9;;
51515;SDS011;37603;55.614;37.326;2023-04-24T20:50:31;12.4;;;5.3;;
51515;SDS011;37603;55.614;37.326;2023-04-24T20:56:31;11.7;;;6.0;;
51515;SDS011;37603;55.614;37.326;2023-04-24T21:02:30;11.9;;;5.3;;
51515;SDS011;37603;55.614;37.326;2023-04-24T21:08:29;10.7;;;5.8;;
51515;SDS011;37603;55.614;37.326;2023-04-24T21:14:29;11.0;;;5.5;;
51515;SDS011;37603;55.614;37.326;2023-04-24T21:20:28;10.9;;;5.7;;
51515;SDS011;37603;55.614;37.326;2023-04-24T21:26:27;9.7;;;5.5;;
51515;SDS011;37603;55.614;37.326;2023-04-24T21:32:27;10.7;;;5.4;;
51515;SDS011;37603;55.614;37.326;2023-04-24T21:38:26;12.1;;;5.8;;
51515;SDS011;37603;55.614;37.326;2023-04-24T21:44:25;12.9;;;5.8;;
51515;SDS011;37603;55.614;37.326;2023-04-24T21:50:25;15.6;;;6.5;;
51515;SDS011;37603;55.614;37.326;2023-04-24T21:56:24;11.0;;;6.0;;
51515;SDS011;37603;55.614;37.326;2023-04-24T22:02:23;14.9;;;6.2;;
51515;SDS011;37603;55.614;37.326;2023-04-24T22:08:23;13.7;;;7.3;;
51515;SDS011;37603;55.614;37.326;2023-04-24T22:14:22;12.4;;;6.3;;
51515;SDS011;37603;55.614;37.326;2023-04-24T22:20:21;18.7;;;7.5;;
51515;SDS011;37603;55.614;37.326;2023-04-24T22:26:20;17.8;;;8.7;;
51515;SDS011;37603;55.614;37.326;2023-04-24T22:32:19;16.1;;;7.8;;
51515;SDS011;37603;55.614;37.326;2023-04-24T22:38:19;17.0;;;8.7;;
51515;SDS011;37603;55.614;37.326;2023-04-24T22:44:18;16.7;;;8.4;;
51515;SDS011;37603;55.614;37.326;2023-04-24T22:50:17;12.3;;;7.7;;
51515;SDS011;37603;55.614;37.326;2023-04-24T22:56:16;18.7;;;8.1;;
51515;SDS011;37603;55.614;37.326;2023-04-24T23:02:16;12.1;;;8.0;;
51515;SDS011;37603;55.614;37.326;2023-04-24T23:08:15;15.1;;;7.7;;
51515;SDS011;37603;55.614;37.326;2023-04-24T23:14:14;15.4;;;7.9;;
51515;SDS011;37603;55.614;37.326;2023-04-24T23:20:13;17.3;;;7.5;;
51515;SDS011;37603;55.614;37.326;2023-04-24T23:26:13;14.3;;;7.6;;
51515;SDS011;37603;55.614;37.326;2023-04-24T23:38:11;14.8;;;8.1;;
51515;SDS011;37603;55.614;37.326;2023-04-24T23:44:10;12.7;;;8.1;;
51515;SDS011;37603;55.614;37.326;2023-04-24T23:50:10;14.7;;;8.2;;
51515;SDS011;37603;55.614;37.326;2023-04-24T23:56:09;15.4;;;7.6;;
